Orillia, Canada
Current Conditions -  °F | °C
As of 3:00 AM on Thursday 27 Nov 2014 (Local Time) from CYQA Reporting Station
Broken Clouds Broken Clouds  
Wind Chill: 14°   Ceiling: 22000
Heat Index: 14°   Visibility: 9mi
Dew Point: 14°   Wind: 2mph
Humidity: 100%   Direction: 10°N
Pressure: 30.04"   Gusts: NA
Location:  44.61°N, 79.42°W
Report Text: CYQA 270800Z AUTO 01002KT 9SM BKN220 BKN240 M10/M10 A3004 RMK SLP189
Loading
Personal Weather Stations






























Interactive Weather Map New forecast layout! Learn more

10-Day Weather Forecast

Advertisements
Track Severe Weather on mobile